<?xml version="1.0" encoding="UTF-8" standalone="no" ?>
<gpx xmlns="http://www.topografix.com/GPX/1/1" xmlns:xsi="http://www.w3.org/2001/XMLSchema-instance" xsi:schemaLocation="http://www.topografix.com/GPX/1/1 http://www.topografix.com/GPX/1/1/gpx.xsd" version="1.1" creator="VisuGPX - https://www.visugpx.com">
  <metadata>
    <name>Boucle avant pays savoyard</name>
    <desc><![CDATA[Circuit 2 jours St Pierre d\'Alvey/La Motte Servolex/St Pierre d\'Alvey]]></desc>
  </metadata>
  <trk>
    <name><![CDATA[Parcours 2012-11-25 10:37]]></name>
    <trkseg>
      <trkpt lat="45.57227" lon="5.85943">
        <ele>483.5</ele>
        <time>2012-11-25T09:42:53Z</time>
      </trkpt>
      <trkpt lat="45.57214" lon="5.85907">
        <ele>487.29998779297</ele>
        <time>2012-11-25T09:43:13Z</time>
      </trkpt>
      <trkpt lat="45.57198" lon="5.85891">
        <ele>486.79998779297</ele>
        <time>2012-11-25T09:43:29Z</time>
      </trkpt>
      <trkpt lat="45.57156" lon="5.85873">
        <ele>483.20001220703</ele>
        <time>2012-11-25T09:44:04Z</time>
      </trkpt>
      <trkpt lat="45.57145" lon="5.85851">
        <ele>484.29998779297</ele>
        <time>2012-11-25T09:44:19Z</time>
      </trkpt>
      <trkpt lat="45.57126" lon="5.85822">
        <ele>485.59997558594</ele>
        <time>2012-11-25T09:44:39Z</time>
      </trkpt>
      <trkpt lat="45.57098" lon="5.8581">
        <ele>487.20001220703</ele>
        <time>2012-11-25T09:45:02Z</time>
      </trkpt>
      <trkpt lat="45.57067" lon="5.85808">
        <ele>489.29998779297</ele>
        <time>2012-11-25T09:45:24Z</time>
      </trkpt>
      <trkpt lat="45.5704" lon="5.85798">
        <ele>489.40002441406</ele>
        <time>2012-11-25T09:45:43Z</time>
      </trkpt>
      <trkpt lat="45.57018" lon="5.85771">
        <ele>492.90002441406</ele>
        <time>2012-11-25T09:46:01Z</time>
      </trkpt>
      <trkpt lat="45.56993" lon="5.85747">
        <ele>495.29998779297</ele>
        <time>2012-11-25T09:46:22Z</time>
      </trkpt>
      <trkpt lat="45.56975" lon="5.85733">
        <ele>496.20001220703</ele>
        <time>2012-11-25T09:46:36Z</time>
      </trkpt>
      <trkpt lat="45.56951" lon="5.85713">
        <ele>495.29998779297</ele>
        <time>2012-11-25T09:46:52Z</time>
      </trkpt>
      <trkpt lat="45.56938" lon="5.8569">
        <ele>495.79998779297</ele>
        <time>2012-11-25T09:47:05Z</time>
      </trkpt>
      <trkpt lat="45.56927" lon="5.85668">
        <ele>497.70001220703</ele>
        <time>2012-11-25T09:47:17Z</time>
      </trkpt>
      <trkpt lat="45.56915" lon="5.85648">
        <ele>499.79998779297</ele>
        <time>2012-11-25T09:47:31Z</time>
      </trkpt>
      <trkpt lat="45.56904" lon="5.85626">
        <ele>501.59997558594</ele>
        <time>2012-11-25T09:47:46Z</time>
      </trkpt>
      <trkpt lat="45.56893" lon="5.85603">
        <ele>503.40002441406</ele>
        <time>2012-11-25T09:48:02Z</time>
      </trkpt>
      <trkpt lat="45.56881" lon="5.8558">
        <ele>506.40002441406</ele>
        <time>2012-11-25T09:48:18Z</time>
      </trkpt>
      <trkpt lat="45.56869" lon="5.85558">
        <ele>507.29998779297</ele>
        <time>2012-11-25T09:48:32Z</time>
      </trkpt>
      <trkpt lat="45.56856" lon="5.85537">
        <ele>509.20001220703</ele>
        <time>2012-11-25T09:48:45Z</time>
      </trkpt>
      <trkpt lat="45.56848" lon="5.85512">
        <ele>512.20001220703</ele>
        <time>2012-11-25T09:49:01Z</time>
      </trkpt>
      <trkpt lat="45.56851" lon="5.85471">
        <ele>516.70001220703</ele>
        <time>2012-11-25T09:49:21Z</time>
      </trkpt>
      <trkpt lat="45.5687" lon="5.85439">
        <ele>516.5</ele>
        <time>2012-11-25T09:49:43Z</time>
      </trkpt>
      <trkpt lat="45.56872" lon="5.85396">
        <ele>520.40002441406</ele>
        <time>2012-11-25T09:50:02Z</time>
      </trkpt>
      <trkpt lat="45.56854" lon="5.85363">
        <ele>517.90002441406</ele>
        <time>2012-11-25T09:50:17Z</time>
      </trkpt>
      <trkpt lat="45.56841" lon="5.85341">
        <ele>516.90002441406</ele>
        <time>2012-11-25T09:50:26Z</time>
      </trkpt>
      <trkpt lat="45.5683" lon="5.85318">
        <ele>517.20001220703</ele>
        <time>2012-11-25T09:50:38Z</time>
      </trkpt>
      <trkpt lat="45.5682" lon="5.85293">
        <ele>519.29998779297</ele>
        <time>2012-11-25T09:50:50Z</time>
      </trkpt>
      <trkpt lat="45.56807" lon="5.85272">
        <ele>522.59997558594</ele>
        <time>2012-11-25T09:51:04Z</time>
      </trkpt>
      <trkpt lat="45.56791" lon="5.85256">
        <ele>525.59997558594</ele>
        <time>2012-11-25T09:51:24Z</time>
      </trkpt>
      <trkpt lat="45.56776" lon="5.85222">
        <ele>528.19995117188</ele>
        <time>2012-11-25T09:51:42Z</time>
      </trkpt>
      <trkpt lat="45.56766" lon="5.85181">
        <ele>535.69995117188</ele>
        <time>2012-11-25T09:52:04Z</time>
      </trkpt>
      <trkpt lat="45.56758" lon="5.85156">
        <ele>538.90002441406</ele>
        <time>2012-11-25T09:52:16Z</time>
      </trkpt>
      <trkpt lat="45.56749" lon="5.85133">
        <ele>542.59997558594</ele>
        <time>2012-11-25T09:52:31Z</time>
      </trkpt>
      <trkpt lat="45.56743" lon="5.85122">
        <ele>544.80004882812</ele>
        <time>2012-11-25T09:52:39Z</time>
      </trkpt>
      <trkpt lat="45.56746" lon="5.85094">
        <ele>549.30004882812</ele>
        <time>2012-11-25T09:52:55Z</time>
      </trkpt>
      <trkpt lat="45.56747" lon="5.85066">
        <ele>554.69995117188</ele>
        <time>2012-11-25T09:53:11Z</time>
      </trkpt>
      <trkpt lat="45.56746" lon="5.85038">
        <ele>558.80004882812</ele>
        <time>2012-11-25T09:53:27Z</time>
      </trkpt>
      <trkpt lat="45.56746" lon="5.84998">
        <ele>563.90002441406</ele>
        <time>2012-11-25T09:53:51Z</time>
      </trkpt>
      <trkpt lat="45.56738" lon="5.84958">
        <ele>564.69995117188</ele>
        <time>2012-11-25T09:54:16Z</time>
      </trkpt>
      <trkpt lat="45.56722" lon="5.84942">
        <ele>563.69995117188</ele>
        <time>2012-11-25T09:54:30Z</time>
      </trkpt>
      <trkpt lat="45.56713" lon="5.84936">
        <ele>564</ele>
        <time>2012-11-25T09:54:37Z</time>
      </trkpt>
      <trkpt lat="45.56694" lon="5.84919">
        <ele>562.69995117188</ele>
        <time>2012-11-25T09:54:47Z</time>
      </trkpt>
      <trkpt lat="45.56679" lon="5.84903">
        <ele>562.40002441406</ele>
        <time>2012-11-25T09:54:57Z</time>
      </trkpt>
      <trkpt lat="45.56669" lon="5.84881">
        <ele>564.19995117188</ele>
        <time>2012-11-25T09:55:12Z</time>
      </trkpt>
      <trkpt lat="45.56665" lon="5.84867">
        <ele>565.90002441406</ele>
        <time>2012-11-25T09:55:20Z</time>
      </trkpt>
      <trkpt lat="45.56657" lon="5.84841">
        <ele>568.30004882812</ele>
        <time>2012-11-25T09:55:36Z</time>
      </trkpt>
      <trkpt lat="45.56653" lon="5.84829">
        <ele>569.30004882812</ele>
        <time>2012-11-25T09:55:43Z</time>
      </trkpt>
      <trkpt lat="45.56649" lon="5.84816">
        <ele>569.09997558594</ele>
        <time>2012-11-25T09:55:50Z</time>
      </trkpt>
      <trkpt lat="45.56636" lon="5.84796">
        <ele>570.80004882812</ele>
        <time>2012-11-25T09:56:03Z</time>
      </trkpt>
      <trkpt lat="45.56629" lon="5.84786">
        <ele>571.5</ele>
        <time>2012-11-25T09:56:10Z</time>
      </trkpt>
      <trkpt lat="45.56624" lon="5.84776">
        <ele>571.5</ele>
        <time>2012-11-25T09:56:17Z</time>
      </trkpt>
      <trkpt lat="45.56619" lon="5.84763">
        <ele>572.5</ele>
        <time>2012-11-25T09:56:25Z</time>
      </trkpt>
      <trkpt lat="45.56619" lon="5.84749">
        <ele>575</ele>
        <time>2012-11-25T09:56:32Z</time>
      </trkpt>
      <trkpt lat="45.56622" lon="5.84721">
        <ele>576.69995117188</ele>
        <time>2012-11-25T09:56:46Z</time>
      </trkpt>
      <trkpt lat="45.56626" lon="5.84693">
        <ele>579.40002441406</ele>
        <time>2012-11-25T09:57:00Z</time>
      </trkpt>
      <trkpt lat="45.56633" lon="5.84669">
        <ele>581.09997558594</ele>
        <time>2012-11-25T09:57:14Z</time>
      </trkpt>
      <trkpt lat="45.56646" lon="5.84634">
        <ele>583.5</ele>
        <time>2012-11-25T09:57:34Z</time>
      </trkpt>
      <trkpt lat="45.56668" lon="5.8462">
        <ele>587.09997558594</ele>
        <time>2012-11-25T09:57:54Z</time>
      </trkpt>
      <trkpt lat="45.56686" lon="5.84617">
        <ele>588.5</ele>
        <time>2012-11-25T09:58:08Z</time>
      </trkpt>
      <trkpt lat="45.56697" lon="5.84596">
        <ele>592.69995117188</ele>
        <time>2012-11-25T09:58:22Z</time>
      </trkpt>
      <trkpt lat="45.56696" lon="5.84583">
        <ele>595.19995117188</ele>
        <time>2012-11-25T09:58:29Z</time>
      </trkpt>
      <trkpt lat="45.56706" lon="5.84545">
        <ele>603.09997558594</ele>
        <time>2012-11-25T09:58:54Z</time>
      </trkpt>
      <trkpt lat="45.56727" lon="5.84519">
        <ele>610.09997558594</ele>
        <time>2012-11-25T09:59:17Z</time>
      </trkpt>
      <trkpt lat="45.56739" lon="5.84497">
        <ele>615</ele>
        <time>2012-11-25T09:59:33Z</time>
      </trkpt>
      <trkpt lat="45.56745" lon="5.84471">
        <ele>617.5</ele>
        <time>2012-11-25T09:59:48Z</time>
      </trkpt>
      <trkpt lat="45.56754" lon="5.84446">
        <ele>619.69995117188</ele>
        <time>2012-11-25T10:00:02Z</time>
      </trkpt>
      <trkpt lat="45.56762" lon="5.84439">
        <ele>619.59997558594</ele>
        <time>2012-11-25T10:00:09Z</time>
      </trkpt>
      <trkpt lat="45.56771" lon="5.84434">
        <ele>619.80004882812</ele>
        <time>2012-11-25T10:00:15Z</time>
      </trkpt>
      <trkpt lat="45.56787" lon="5.84423">
        <ele>620.69995117188</ele>
        <time>2012-11-25T10:00:27Z</time>
      </trkpt>
      <trkpt lat="45.56805" lon="5.84413">
        <ele>621.80004882812</ele>
        <time>2012-11-25T10:00:39Z</time>
      </trkpt>
      <trkpt lat="45.56824" lon="5.84413">
        <ele>622.09997558594</ele>
        <time>2012-11-25T10:00:52Z</time>
      </trkpt>
      <trkpt lat="45.56834" lon="5.84414">
        <ele>621.80004882812</ele>
        <time>2012-11-25T10:00:59Z</time>
      </trkpt>
      <trkpt lat="45.56844" lon="5.84412">
        <ele>622.5</ele>
        <time>2012-11-25T10:01:06Z</time>
      </trkpt>
      <trkpt lat="45.56865" lon="5.84413">
        <ele>622.19995117188</ele>
        <time>2012-11-25T10:01:20Z</time>
      </trkpt>
      <trkpt lat="45.56884" lon="5.8441">
        <ele>622.80004882812</ele>
        <time>2012-11-25T10:01:33Z</time>
      </trkpt>
      <trkpt lat="45.56911" lon="5.84393">
        <ele>622.09997558594</ele>
        <time>2012-11-25T10:01:53Z</time>
      </trkpt>
      <trkpt lat="45.56929" lon="5.8438">
        <ele>623.80004882812</ele>
        <time>2012-11-25T10:02:06Z</time>
      </trkpt>
      <trkpt lat="45.56945" lon="5.84363">
        <ele>626.90002441406</ele>
        <time>2012-11-25T10:02:20Z</time>
      </trkpt>
      <trkpt lat="45.56961" lon="5.84349">
        <ele>629.80004882812</ele>
        <time>2012-11-25T10:02:33Z</time>
      </trkpt>
      <trkpt lat="45.56978" lon="5.84333">
        <ele>631.5</ele>
        <time>2012-11-25T10:02:47Z</time>
      </trkpt>
      <trkpt lat="45.56987" lon="5.84326">
        <ele>631.19995117188</ele>
        <time>2012-11-25T10:02:54Z</time>
      </trkpt>
      <trkpt lat="45.56996" lon="5.8432">
        <ele>631.5</ele>
        <time>2012-11-25T10:03:01Z</time>
      </trkpt>
      <trkpt lat="45.57013" lon="5.84306">
        <ele>632.19995117188</ele>
        <time>2012-11-25T10:03:15Z</time>
      </trkpt>
      <trkpt lat="45.57029" lon="5.84294">
        <ele>633.19995117188</ele>
        <time>2012-11-25T10:03:29Z</time>
      </trkpt>
      <trkpt lat="45.57046" lon="5.8428">
        <ele>634.30004882812</ele>
        <time>2012-11-25T10:03:43Z</time>
      </trkpt>
      <trkpt lat="45.57064" lon="5.84266">
        <ele>636.69995117188</ele>
        <time>2012-11-25T10:03:57Z</time>
      </trkpt>
      <trkpt lat="45.57081" lon="5.84253">
        <ele>637.80004882812</ele>
        <time>2012-11-25T10:04:11Z</time>
      </trkpt>
      <trkpt lat="45.57098" lon="5.84238">
        <ele>637.69995117188</ele>
        <time>2012-11-25T10:04:25Z</time>
      </trkpt>
      <trkpt lat="45.57116" lon="5.84226">
        <ele>639.09997558594</ele>
        <time>2012-11-25T10:04:38Z</time>
      </trkpt>
      <trkpt lat="45.57143" lon="5.8421">
        <ele>639.59997558594</ele>
        <time>2012-11-25T10:04:59Z</time>
      </trkpt>
      <trkpt lat="45.57169" lon="5.84192">
        <ele>640.59997558594</ele>
        <time>2012-11-25T10:05:20Z</time>
      </trkpt>
      <trkpt lat="45.57247" lon="5.84135">
        <ele>650.40002441406</ele>
        <time>2012-11-25T10:06:20Z</time>
      </trkpt>
      <trkpt lat="45.57272" lon="5.84117">
        <ele>654</ele>
        <time>2012-11-25T10:06:39Z</time>
      </trkpt>
      <trkpt lat="45.57291" lon="5.84086">
        <ele>656.19995117188</ele>
        <time>2012-11-25T10:06:58Z</time>
      </trkpt>
      <trkpt lat="45.57303" lon="5.84048">
        <ele>658.09997558594</ele>
        <time>2012-11-25T10:07:19Z</time>
      </trkpt>
      <trkpt lat="45.57307" lon="5.84036">
        <ele>658.19995117188</ele>
        <time>2012-11-25T10:07:49Z</time>
      </trkpt>
      <trkpt lat="45.57273" lon="5.84037">
        <ele>662.40002441406</ele>
        <time>2012-11-25T10:08:08Z</time>
      </trkpt>
      <trkpt lat="45.57248" lon="5.84017">
        <ele>667.5</ele>
        <time>2012-11-25T10:08:29Z</time>
      </trkpt>
      <trkpt lat="45.5722" lon="5.84009">
        <ele>674.5</ele>
        <time>2012-11-25T10:08:51Z</time>
      </trkpt>
      <trkpt lat="45.5719" lon="5.84005">
        <ele>680.19995117188</ele>
        <time>2012-11-25T10:09:10Z</time>
      </trkpt>
      <trkpt lat="45.57163" lon="5.83989">
        <ele>685</ele>
        <time>2012-11-25T10:09:31Z</time>
      </trkpt>
      <trkpt lat="45.57138" lon="5.83966">
        <ele>694.40002441406</ele>
        <time>2012-11-25T10:09:54Z</time>
      </trkpt>
      <trkpt lat="45.57112" lon="5.83948">
        <ele>699.09997558594</ele>
        <time>2012-11-25T10:10:17Z</time>
      </trkpt>
      <trkpt lat="45.57085" lon="5.83926">
        <ele>707.09997558594</ele>
        <time>2012-11-25T10:10:36Z</time>
      </trkpt>
      <trkpt lat="45.57069" lon="5.83912">
        <ele>712.19995117188</ele>
        <time>2012-11-25T10:10:50Z</time>
      </trkpt>
      <trkpt lat="45.57054" lon="5.83897">
        <ele>719.5</ele>
        <time>2012-11-25T10:11:04Z</time>
      </trkpt>
      <trkpt lat="45.5705" lon="5.83886">
        <ele>721.59997558594</ele>
        <time>2012-11-25T10:11:13Z</time>
      </trkpt>
      <trkpt lat="45.57036" lon="5.83868">
        <ele>726.40002441406</ele>
        <time>2012-11-25T10:11:29Z</time>
      </trkpt>
      <trkpt lat="45.57022" lon="5.8385">
        <ele>730.30004882812</ele>
        <time>2012-11-25T10:11:44Z</time>
      </trkpt>
      <trkpt lat="45.5701" lon="5.8383">
        <ele>732.69995117188</ele>
        <time>2012-11-25T10:11:58Z</time>
      </trkpt>
      <trkpt lat="45.56988" lon="5.83827">
        <ele>737.19995117188</ele>
        <time>2012-11-25T10:12:25Z</time>
      </trkpt>
      <trkpt lat="45.5697" lon="5.83809">
        <ele>738.19995117188</ele>
        <time>2012-11-25T10:12:35Z</time>
      </trkpt>
      <trkpt lat="45.56949" lon="5.83804">
        <ele>740.90002441406</ele>
        <time>2012-11-25T10:12:44Z</time>
      </trkpt>
      <trkpt lat="45.5694" lon="5.83799">
        <ele>742.80004882812</ele>
        <time>2012-11-25T10:12:50Z</time>
      </trkpt>
      <trkpt lat="45.56923" lon="5.838">
        <ele>745.90002441406</ele>
        <time>2012-11-25T10:13:03Z</time>
      </trkpt>
      <trkpt lat="45.56905" lon="5.83807">
        <ele>748.40002441406</ele>
        <time>2012-11-25T10:13:19Z</time>
      </trkpt>
      <trkpt lat="45.56885" lon="5.83813">
        <ele>753.40002441406</ele>
        <time>2012-11-25T10:13:34Z</time>
      </trkpt>
      <trkpt lat="45.56856" lon="5.83815">
        <ele>756.90002441406</ele>
        <time>2012-11-25T10:13:54Z</time>
      </trkpt>
      <trkpt lat="45.56829" lon="5.83809">
        <ele>759.69995117188</ele>
        <time>2012-11-25T10:14:16Z</time>
      </trkpt>
      <trkpt lat="45.568" lon="5.83809">
        <ele>765.09997558594</ele>
        <time>2012-11-25T10:14:38Z</time>
      </trkpt>
      <trkpt lat="45.56776" lon="5.8383">
        <ele>769.80004882812</ele>
        <time>2012-11-25T10:14:59Z</time>
      </trkpt>
      <trkpt lat="45.56746" lon="5.83832">
        <ele>771.80004882812</ele>
        <time>2012-11-25T10:15:20Z</time>
      </trkpt>
      <trkpt lat="45.56717" lon="5.8384">
        <ele>772.40002441406</ele>
        <time>2012-11-25T10:15:40Z</time>
      </trkpt>
      <trkpt lat="45.56689" lon="5.83828">
        <ele>774.59997558594</ele>
        <time>2012-11-25T10:15:54Z</time>
      </trkpt>
      <trkpt lat="45.5668" lon="5.83787">
        <ele>778.09997558594</ele>
        <time>2012-11-25T10:16:11Z</time>
      </trkpt>
      <trkpt lat="45.56674" lon="5.83755">
        <ele>780.80004882812</ele>
        <time>2012-11-25T10:16:18Z</time>
      </trkpt>
      <trkpt lat="45.56659" lon="5.8371">
        <ele>782.40002441406</ele>
        <time>2012-11-25T10:16:26Z</time>
      </trkpt>
      <trkpt lat="45.56647" lon="5.83671">
        <ele>785.09997558594</ele>
        <time>2012-11-25T10:16:32Z</time>
      </trkpt>
      <trkpt lat="45.56631" lon="5.83629">
        <ele>787.69995117188</ele>
        <time>2012-11-25T10:16:41Z</time>
      </trkpt>
      <trkpt lat="45.5665" lon="5.8347">
        <ele>796.80004882812</ele>
        <time>2012-11-25T10:17:11Z</time>
      </trkpt>
      <trkpt lat="45.56667" lon="5.83458">
        <ele>800.59997558594</ele>
        <time>2012-11-25T10:17:30Z</time>
      </trkpt>
      <trkpt lat="45.56694" lon="5.83459">
        <ele>799.09997558594</ele>
        <time>2012-11-25T10:17:53Z</time>
      </trkpt>
      <trkpt lat="45.56714" lon="5.83459">
        <ele>797.19995117188</ele>
        <time>2012-11-25T10:18:10Z</time>
      </trkpt>
      <trkpt lat="45.56742" lon="5.83457">
        <ele>795.19995117188</ele>
        <time>2012-11-25T10:18:35Z</time>
      </trkpt>
      <trkpt lat="45.56761" lon="5.83453">
        <ele>795</ele>
        <time>2012-11-25T10:18:48Z</time>
      </trkpt>
      <trkpt lat="45.56782" lon="5.83452">
        <ele>791.90002441406</ele>
        <time>2012-11-25T10:19:02Z</time>
      </trkpt>
      <trkpt lat="45.56801" lon="5.83448">
        <ele>785.40002441406</ele>
        <time>2012-11-25T10:19:18Z</time>
      </trkpt>
      <trkpt lat="45.56829" lon="5.83446">
        <ele>780.19995117188</ele>
        <time>2012-11-25T10:19:45Z</time>
      </trkpt>
      <trkpt lat="45.56858" lon="5.83435">
        <ele>777</ele>
        <time>2012-11-25T10:20:06Z</time>
      </trkpt>
      <trkpt lat="45.56877" lon="5.83426">
        <ele>773.90002441406</ele>
        <time>2012-11-25T10:20:15Z</time>
      </trkpt>
      <trkpt lat="45.56895" lon="5.83404">
        <ele>772.80004882812</ele>
        <time>2012-11-25T10:20:21Z</time>
      </trkpt>
      <trkpt lat="45.56931" lon="5.83378">
        <ele>772.69995117188</ele>
        <time>2012-11-25T10:20:40Z</time>
      </trkpt>
      <trkpt lat="45.56958" lon="5.83374">
        <ele>772.30004882812</ele>
        <time>2012-11-25T10:21:06Z</time>
      </trkpt>
      <trkpt lat="45.56982" lon="5.8335">
        <ele>772.80004882812</ele>
        <time>2012-11-25T10:21:23Z</time>
      </trkpt>
      <trkpt lat="45.5701" lon="5.8334">
        <ele>772.09997558594</ele>
        <time>2012-11-25T10:21:43Z</time>
      </trkpt>
      <trkpt lat="45.5704" lon="5.83343">
        <ele>770.09997558594</ele>
        <time>2012-11-25T10:22:05Z</time>
      </trkpt>
      <trkpt lat="45.5707" lon="5.83344">
        <ele>767</ele>
        <time>2012-11-25T10:22:25Z</time>
      </trkpt>
      <trkpt lat="45.57088" lon="5.83341">
        <ele>765.19995117188</ele>
        <time>2012-11-25T10:22:42Z</time>
      </trkpt>
      <trkpt lat="45.57118" lon="5.83333">
        <ele>761.59997558594</ele>
        <time>2012-11-25T10:23:02Z</time>
      </trkpt>
      <trkpt lat="45.57138" lon="5.83331">
        <ele>757.5</ele>
        <time>2012-11-25T10:23:14Z</time>
      </trkpt>
      <trkpt lat="45.57157" lon="5.83335">
        <ele>755.19995117188</ele>
        <time>2012-11-25T10:23:31Z</time>
      </trkpt>
      <trkpt lat="45.57184" lon="5.83333">
        <ele>751.5</ele>
        <time>2012-11-25T10:23:55Z</time>
      </trkpt>
      <trkpt lat="45.57203" lon="5.83326">
        <ele>747.09997558594</ele>
        <time>2012-11-25T10:24:10Z</time>
      </trkpt>
      <trkpt lat="45.57222" lon="5.83322">
        <ele>743.69995117188</ele>
        <time>2012-11-25T10:24:23Z</time>
      </trkpt>
      <trkpt lat="45.57242" lon="5.83321">
        <ele>740.59997558594</ele>
        <time>2012-11-25T10:24:36Z</time>
      </trkpt>
      <trkpt lat="45.5726" lon="5.83324">
        <ele>734.90002441406</ele>
        <time>2012-11-25T10:24:50Z</time>
      </trkpt>
      <trkpt lat="45.57279" lon="5.83328">
        <ele>730</ele>
        <time>2012-11-25T10:25:05Z</time>
      </trkpt>
      <trkpt lat="45.57296" lon="5.83312">
        <ele>728.40002441406</ele>
        <time>2012-11-25T10:25:16Z</time>
      </trkpt>
      <trkpt lat="45.5731" lon="5.83295">
        <ele>729.09997558594</ele>
        <time>2012-11-25T10:25:28Z</time>
      </trkpt>
      <trkpt lat="45.57326" lon="5.83279">
        <ele>730.40002441406</ele>
        <time>2012-11-25T10:25:39Z</time>
      </trkpt>
      <trkpt lat="45.57341" lon="5.83263">
        <ele>731.09997558594</ele>
        <time>2012-11-25T10:25:49Z</time>
      </trkpt>
      <trkpt lat="45.57355" lon="5.83243">
        <ele>731.5</ele>
        <time>2012-11-25T10:26:03Z</time>
      </trkpt>
      <trkpt lat="45.57368" lon="5.83222">
        <ele>733.09997558594</ele>
        <time>2012-11-25T10:26:17Z</time>
      </trkpt>
      <trkpt lat="45.57376" lon="5.83213">
        <ele>734.09997558594</ele>
        <time>2012-11-25T10:26:24Z</time>
      </trkpt>
      <trkpt lat="45.57385" lon="5.83205">
        <ele>735.19995117188</ele>
        <time>2012-11-25T10:26:31Z</time>
      </trkpt>
      <trkpt lat="45.57401" lon="5.83189">
        <ele>738.19995117188</ele>
        <time>2012-11-25T10:26:45Z</time>
      </trkpt>
      <trkpt lat="45.57417" lon="5.83175">
        <ele>737.69995117188</ele>
        <time>2012-11-25T10:26:58Z</time>
      </trkpt>
      <trkpt lat="45.57443" lon="5.83156">
        <ele>738.59997558594</ele>
        <time>2012-11-25T10:27:18Z</time>
      </trkpt>
      <trkpt lat="45.57468" lon="5.83136">
        <ele>739.69995117188</ele>
        <time>2012-11-25T10:27:39Z</time>
      </trkpt>
      <trkpt lat="45.57495" lon="5.83119">
        <ele>743.59997558594</ele>
        <time>2012-11-25T10:27:56Z</time>
      </trkpt>
      <trkpt lat="45.57514" lon="5.8311">
        <ele>746.90002441406</ele>
        <time>2012-11-25T10:28:08Z</time>
      </trkpt>
      <trkpt lat="45.57543" lon="5.83116">
        <ele>746.90002441406</ele>
        <time>2012-11-25T10:28:27Z</time>
      </trkpt>
      <trkpt lat="45.57572" lon="5.83119">
        <ele>749.69995117188</ele>
        <time>2012-11-25T10:28:47Z</time>
      </trkpt>
      <trkpt lat="45.5763" lon="5.83122">
        <ele>755.19995117188</ele>
        <time>2012-11-25T10:29:23Z</time>
      </trkpt>
      <trkpt lat="45.57659" lon="5.83113">
        <ele>762.59997558594</ele>
        <time>2012-11-25T10:29:45Z</time>
      </trkpt>
      <trkpt lat="45.57687" lon="5.8311">
        <ele>775.59997558594</ele>
        <time>2012-11-25T10:30:05Z</time>
      </trkpt>
      <trkpt lat="45.57706" lon="5.83116">
        <ele>778.90002441406</ele>
        <time>2012-11-25T10:30:23Z</time>
      </trkpt>
      <trkpt lat="45.57726" lon="5.8311">
        <ele>781.80004882812</ele>
        <time>2012-11-25T10:30:33Z</time>
      </trkpt>
      <trkpt lat="45.57745" lon="5.8311">
        <ele>785.59997558594</ele>
        <time>2012-11-25T10:30:50Z</time>
      </trkpt>
      <trkpt lat="45.57748" lon="5.83098">
        <ele>790.90002441406</ele>
        <time>2012-11-25T10:34:14Z</time>
      </trkpt>
      <trkpt lat="45.57713" lon="5.83052">
        <ele>796.69995117188</ele>
        <time>2012-11-25T10:34:38Z</time>
      </trkpt>
      <trkpt lat="45.57701" lon="5.83018">
        <ele>799.09997558594</ele>
        <time>2012-11-25T10:35:02Z</time>
      </trkpt>
      <trkpt lat="45.57677" lon="5.82992">
        <ele>804.19995117188</ele>
        <time>2012-11-25T10:35:25Z</time>
      </trkpt>
      <trkpt lat="45.57689" lon="5.82976">
        <ele>807.40002441406</ele>
        <time>2012-11-25T10:35:56Z</time>
      </trkpt>
      <trkpt lat="45.57718" lon="5.82977">
        <ele>810.59997558594</ele>
        <time>2012-11-25T10:36:20Z</time>
      </trkpt>
      <trkpt lat="45.57745" lon="5.82973">
        <ele>815.19995117188</ele>
        <time>2012-11-25T10:36:45Z</time>
      </trkpt>
      <trkpt lat="45.57804" lon="5.8293">
        <ele>830</ele>
        <time>2012-11-25T10:37:41Z</time>
      </trkpt>
      <trkpt lat="45.57851" lon="5.82915">
        <ele>838.40002441406</ele>
        <time>2012-11-25T10:38:19Z</time>
      </trkpt>
      <trkpt lat="45.57889" lon="5.82903">
        <ele>841.59997558594</ele>
        <time>2012-11-25T10:38:54Z</time>
      </trkpt>
      <trkpt lat="45.57918" lon="5.82892">
        <ele>845.5</ele>
        <time>2012-11-25T10:39:15Z</time>
      </trkpt>
      <trkpt lat="45.57945" lon="5.82879">
        <ele>850.19995117188</ele>
        <time>2012-11-25T10:39:40Z</time>
      </trkpt>
      <trkpt lat="45.57972" lon="5.82861">
        <ele>855.40002441406</ele>
        <time>2012-11-25T10:40:02Z</time>
      </trkpt>
      <trkpt lat="45.57999" lon="5.82857">
        <ele>858.5</ele>
        <time>2012-11-25T10:40:23Z</time>
      </trkpt>
      <trkpt lat="45.58021" lon="5.82884">
        <ele>862.59997558594</ele>
        <time>2012-11-25T10:40:43Z</time>
      </trkpt>
      <trkpt lat="45.58031" lon="5.82888">
        <ele>863.69995117188</ele>
        <time>2012-11-25T10:41:07Z</time>
      </trkpt>
      <trkpt lat="45.58063" lon="5.8284">
        <ele>866</ele>
        <time>2012-11-25T10:41:31Z</time>
      </trkpt>
      <trkpt lat="45.58091" lon="5.82833">
        <ele>866.19995117188</ele>
        <time>2012-11-25T10:41:53Z</time>
      </trkpt>
      <trkpt lat="45.58128" lon="5.82853">
        <ele>868.90002441406</ele>
        <time>2012-11-25T10:42:20Z</time>
      </trkpt>
      <trkpt lat="45.58155" lon="5.82856">
        <ele>869.5</ele>
        <time>2012-11-25T10:42:47Z</time>
      </trkpt>
      <trkpt lat="45.58182" lon="5.82847">
        <ele>873.30004882812</ele>
        <time>2012-11-25T10:43:09Z</time>
      </trkpt>
      <trkpt lat="45.58211" lon="5.82849">
        <ele>873.90002441406</ele>
        <time>2012-11-25T10:43:35Z</time>
      </trkpt>
      <trkpt lat="45.5823" lon="5.82842">
        <ele>874.59997558594</ele>
        <time>2012-11-25T10:43:47Z</time>
      </trkpt>
      <trkpt lat="45.58285" lon="5.82847">
        <ele>884.40002441406</ele>
        <time>2012-11-25T10:44:28Z</time>
      </trkpt>
      <trkpt lat="45.58314" lon="5.82834">
        <ele>889.40002441406</ele>
        <time>2012-11-25T10:44:52Z</time>
      </trkpt>
      <trkpt lat="45.58349" lon="5.82808">
        <ele>893.09997558594</ele>
        <time>2012-11-25T10:45:23Z</time>
      </trkpt>
      <trkpt lat="45.58399" lon="5.82801">
        <ele>906.09997558594</ele>
        <time>2012-11-25T10:46:05Z</time>
      </trkpt>
      <trkpt lat="45.58447" lon="5.82781">
        <ele>916.30004882812</ele>
        <time>2012-11-25T10:46:56Z</time>
      </trkpt>
      <trkpt lat="45.5846" lon="5.82766">
        <ele>920.80004882812</ele>
        <time>2012-11-25T10:47:25Z</time>
      </trkpt>
      <trkpt lat="45.58431" lon="5.82757">
        <ele>925.30004882812</ele>
        <time>2012-11-25T10:47:48Z</time>
      </trkpt>
      <trkpt lat="45.58405" lon="5.82748">
        <ele>927.5</ele>
        <time>2012-11-25T10:48:13Z</time>
      </trkpt>
      <trkpt lat="45.58377" lon="5.82732">
        <ele>928.5</ele>
        <time>2012-11-25T10:48:35Z</time>
      </trkpt>
      <trkpt lat="45.5832" lon="5.82728">
        <ele>937.59997558594</ele>
        <time>2012-11-25T10:49:22Z</time>
      </trkpt>
      <trkpt lat="45.58291" lon="5.82729">
        <ele>936.90002441406</ele>
        <time>2012-11-25T10:49:41Z</time>
      </trkpt>
      <trkpt lat="45.58274" lon="5.82708">
        <ele>940.30004882812</ele>
        <time>2012-11-25T10:50:02Z</time>
      </trkpt>
      <trkpt lat="45.58477" lon="5.82671">
        <ele>953.09997558594</ele>
        <time>2012-11-25T10:52:39Z</time>
      </trkpt>
      <trkpt lat="45.58526" lon="5.82663">
        <ele>960.69995117188</ele>
        <time>2012-11-25T10:53:14Z</time>
      </trkpt>
      <trkpt lat="45.58553" lon="5.8265">
        <ele>965.90002441406</ele>
        <time>2012-11-25T10:53:39Z</time>
      </trkpt>
      <trkpt lat="45.58572" lon="5.82644">
        <ele>966.09997558594</ele>
        <time>2012-11-25T10:53:52Z</time>
      </trkpt>
      <trkpt lat="45.58591" lon="5.82642">
        <ele>966.80004882812</ele>
        <time>2012-11-25T10:54:07Z</time>
      </trkpt>
      <trkpt lat="45.5861" lon="5.82638">
        <ele>972</ele>
        <time>2012-11-25T10:54:22Z</time>
      </trkpt>
      <trkpt lat="45.58629" lon="5.82637">
        <ele>972.90002441406</ele>
        <time>2012-11-25T10:54:37Z</time>
      </trkpt>
      <trkpt lat="45.58658" lon="5.82643">
        <ele>978.40002441406</ele>
        <time>2012-11-25T10:54:58Z</time>
      </trkpt>
      <trkpt lat="45.58682" lon="5.82634">
        <ele>979.90002441406</ele>
        <time>2012-11-25T10:55:23Z</time>
      </trkpt>
      <trkpt lat="45.58577" lon="5.82617">
        <ele>987.59997558594</ele>
        <time>2012-11-25T10:56:41Z</time>
      </trkpt>
      <trkpt lat="45.58304" lon="5.82597">
        <ele>1001.4000244141</ele>
        <time>2012-11-25T11:00:10Z</time>
      </trkpt>
      <trkpt lat="45.58277" lon="5.82594">
        <ele>1004.8000488281</ele>
        <time>2012-11-25T11:00:30Z</time>
      </trkpt>
      <trkpt lat="45.58248" lon="5.82594">
        <ele>1007.8000488281</ele>
        <time>2012-11-25T11:00:49Z</time>
      </trkpt>
      <trkpt lat="45.58223" lon="5.8258">
        <ele>1008.0999755859</ele>
        <time>2012-11-25T11:01:08Z</time>
      </trkpt>
      <trkpt lat="45.58178" lon="5.82567">
        <ele>1015.8000488281</ele>
        <time>2012-11-25T11:01:46Z</time>
      </trkpt>
      <trkpt lat="45.58151" lon="5.82564">
        <ele>1017.6999511719</ele>
        <time>2012-11-25T11:02:05Z</time>
      </trkpt>
      <trkpt lat="45.58123" lon="5.82569">
        <ele>1017.5999755859</ele>
        <time>2012-11-25T11:02:26Z</time>
      </trkpt>
      <trkpt lat="45.58111" lon="5.82579">
        <ele>1021.8000488281</ele>
        <time>2012-11-25T11:04:47Z</time>
      </trkpt>
      <trkpt lat="45.58091" lon="5.82555">
        <ele>1023.8000488281</ele>
        <time>2012-11-25T11:05:09Z</time>
      </trkpt>
      <trkpt lat="45.58064" lon="5.82542">
        <ele>1026.4000244141</ele>
        <time>2012-11-25T11:05:30Z</time>
      </trkpt>
      <trkpt lat="45.58047" lon="5.82528">
        <ele>1028.6999511719</ele>
        <time>2012-11-25T11:05:44Z</time>
      </trkpt>
      <trkpt lat="45.58031" lon="5.82511">
        <ele>1032.0999755859</ele>
        <time>2012-11-25T11:05:57Z</time>
      </trkpt>
      <trkpt lat="45.5802" lon="5.82489">
        <ele>1033.5999755859</ele>
        <time>2012-11-25T11:06:11Z</time>
      </trkpt>
      <trkpt lat="45.58021" lon="5.8246">
        <ele>1036.0999755859</ele>
        <time>2012-11-25T11:06:26Z</time>
      </trkpt>
      <trkpt lat="45.58024" lon="5.82421">
        <ele>1036.3000488281</ele>
        <time>2012-11-25T11:06:45Z</time>
      </trkpt>
      <trkpt lat="45.58034" lon="5.82397">
        <ele>1037.1999511719</ele>
        <time>2012-11-25T11:07:00Z</time>
      </trkpt>
      <trkpt lat="45.5805" lon="5.82365">
        <ele>1039.0999755859</ele>
        <time>2012-11-25T11:07:24Z</time>
      </trkpt>
      <trkpt lat="45.58074" lon="5.82346">
        <ele>1038.5999755859</ele>
        <time>2012-11-25T11:07:45Z</time>
      </trkpt>
      <trkpt lat="45.58104" lon="5.82342">
        <ele>1039</ele>
        <time>2012-11-25T11:08:07Z</time>
      </trkpt>
      <trkpt lat="45.58114" lon="5.82318">
        <ele>1041.5999755859</ele>
        <time>2012-11-25T11:08:18Z</time>
      </trkpt>
      <trkpt lat="45.58124" lon="5.82295">
        <ele>1046.1999511719</ele>
        <time>2012-11-25T11:08:32Z</time>
      </trkpt>
      <trkpt lat="45.58141" lon="5.82288">
        <ele>1052</ele>
        <time>2012-11-25T11:08:47Z</time>
      </trkpt>
      <trkpt lat="45.58151" lon="5.82256">
        <ele>1054.8000488281</ele>
        <time>2012-11-25T11:09:11Z</time>
      </trkpt>
      <trkpt lat="45.58149" lon="5.82227">
        <ele>1056.5999755859</ele>
        <time>2012-11-25T11:09:25Z</time>
      </trkpt>
      <trkpt lat="45.58154" lon="5.82172">
        <ele>1055.9000244141</ele>
        <time>2012-11-25T11:09:56Z</time>
      </trkpt>
      <trkpt lat="45.58148" lon="5.8213">
        <ele>1047.8000488281</ele>
        <time>2012-11-25T11:10:18Z</time>
      </trkpt>
      <trkpt lat="45.58143" lon="5.82091">
        <ele>1049</ele>
        <time>2012-11-25T11:10:41Z</time>
      </trkpt>
      <trkpt lat="45.58098" lon="5.82025">
        <ele>1043.0999755859</ele>
        <time>2012-11-25T11:11:33Z</time>
      </trkpt>
      <trkpt lat="45.58071" lon="5.82019">
        <ele>1038.5999755859</ele>
        <time>2012-11-25T11:11:53Z</time>
      </trkpt>
      <trkpt lat="45.58082" lon="5.81963">
        <ele>1033.6999511719</ele>
        <time>2012-11-25T11:12:48Z</time>
      </trkpt>
      <trkpt lat="45.58068" lon="5.81899">
        <ele>1034.9000244141</ele>
        <time>2012-11-25T11:13:25Z</time>
      </trkpt>
      <trkpt lat="45.58059" lon="5.8186">
        <ele>1034.8000488281</ele>
        <time>2012-11-25T11:13:42Z</time>
      </trkpt>
      <trkpt lat="45.58057" lon="5.81834">
        <ele>1033.1999511719</ele>
        <time>2012-11-25T11:13:54Z</time>
      </trkpt>
      <trkpt lat="45.58042" lon="5.81814">
        <ele>1033.4000244141</ele>
        <time>2012-11-25T11:14:08Z</time>
      </trkpt>
      <trkpt lat="45.5803" lon="5.81794">
        <ele>1024.6999511719</ele>
        <time>2012-11-25T11:14:24Z</time>
      </trkpt>
      <trkpt lat="45.58015" lon="5.81773">
        <ele>1018.4000244141</ele>
        <time>2012-11-25T11:14:38Z</time>
      </trkpt>
      <trkpt lat="45.57999" lon="5.8176">
        <ele>1010.0999755859</ele>
        <time>2012-11-25T11:15:11Z</time>
      </trkpt>
      <trkpt lat="45.57982" lon="5.81775">
        <ele>1007.5999755859</ele>
        <time>2012-11-25T11:15:28Z</time>
      </trkpt>
      <trkpt lat="45.57967" lon="5.81792">
        <ele>1009</ele>
        <time>2012-11-25T11:15:42Z</time>
      </trkpt>
      <trkpt lat="45.57959" lon="5.81801">
        <ele>1010</ele>
        <time>2012-11-25T11:15:48Z</time>
      </trkpt>
      <trkpt lat="45.57931" lon="5.81808">
        <ele>1004.8000488281</ele>
        <time>2012-11-25T11:16:03Z</time>
      </trkpt>
      <trkpt lat="45.5791" lon="5.81779">
        <ele>1005.3000488281</ele>
        <time>2012-11-25T11:16:22Z</time>
      </trkpt>
      <trkpt lat="45.57908" lon="5.8174">
        <ele>1008.5</ele>
        <time>2012-11-25T11:16:40Z</time>
      </trkpt>
      <trkpt lat="45.57911" lon="5.81701">
        <ele>1010.5999755859</ele>
        <time>2012-11-25T11:16:59Z</time>
      </trkpt>
      <trkpt lat="45.57924" lon="5.81653">
        <ele>1013.3000488281</ele>
        <time>2012-11-25T11:17:24Z</time>
      </trkpt>
      <trkpt lat="45.57925" lon="5.81612">
        <ele>1013.4000244141</ele>
        <time>2012-11-25T11:17:50Z</time>
      </trkpt>
      <trkpt lat="45.57915" lon="5.81574">
        <ele>1009.0999755859</ele>
        <time>2012-11-25T11:18:19Z</time>
      </trkpt>
      <trkpt lat="45.57923" lon="5.81535">
        <ele>1005.5</ele>
        <time>2012-11-25T11:18:38Z</time>
      </trkpt>
      <trkpt lat="45.5797" lon="5.8144">
        <ele>991.59997558594</ele>
        <time>2012-11-25T11:19:41Z</time>
      </trkpt>
      <trkpt lat="45.57981" lon="5.81402">
        <ele>989.69995117188</ele>
        <time>2012-11-25T11:20:05Z</time>
      </trkpt>
      <trkpt lat="45.5799" lon="5.81365">
        <ele>988.19995117188</ele>
        <time>2012-11-25T11:20:23Z</time>
      </trkpt>
      <trkpt lat="45.58035" lon="5.81351">
        <ele>977.09997558594</ele>
        <time>2012-11-25T11:20:53Z</time>
      </trkpt>
      <trkpt lat="45.5804" lon="5.81312">
        <ele>976</ele>
        <time>2012-11-25T11:21:12Z</time>
      </trkpt>
      <trkpt lat="45.58051" lon="5.81275">
        <ele>977.69995117188</ele>
        <time>2012-11-25T11:21:34Z</time>
      </trkpt>
      <trkpt lat="45.58062" lon="5.81254">
        <ele>979.69995117188</ele>
        <time>2012-11-25T11:21:47Z</time>
      </trkpt>
      <trkpt lat="45.58073" lon="5.81232">
        <ele>977.5</ele>
        <time>2012-11-25T11:21:59Z</time>
      </trkpt>
      <trkpt lat="45.58092" lon="5.81231">
        <ele>975</ele>
        <time>2012-11-25T11:22:11Z</time>
      </trkpt>
      <trkpt lat="45.58119" lon="5.81249">
        <ele>967.69995117188</ele>
        <time>2012-11-25T11:22:29Z</time>
      </trkpt>
      <trkpt lat="45.58157" lon="5.81288">
        <ele>970.59997558594</ele>
        <time>2012-11-25T11:23:07Z</time>
      </trkpt>
      <trkpt lat="45.58183" lon="5.8127">
        <ele>969.09997558594</ele>
        <time>2012-11-25T11:23:28Z</time>
      </trkpt>
      <trkpt lat="45.58209" lon="5.8125">
        <ele>971.09997558594</ele>
        <time>2012-11-25T11:23:51Z</time>
      </trkpt>
      <trkpt lat="45.58237" lon="5.81245">
        <ele>972</ele>
        <time>2012-11-25T11:24:10Z</time>
      </trkpt>
      <trkpt lat="45.58271" lon="5.81224">
        <ele>972.69995117188</ele>
        <time>2012-11-25T11:24:42Z</time>
      </trkpt>
      <trkpt lat="45.58309" lon="5.81214">
        <ele>970.80004882812</ele>
        <time>2012-11-25T11:25:11Z</time>
      </trkpt>
      <trkpt lat="45.58338" lon="5.81205">
        <ele>974.5</ele>
        <time>2012-11-25T11:25:33Z</time>
      </trkpt>
      <trkpt lat="45.58352" lon="5.81188">
        <ele>974.19995117188</ele>
        <time>2012-11-25T11:25:48Z</time>
      </trkpt>
      <trkpt lat="45.58364" lon="5.81168">
        <ele>974.59997558594</ele>
        <time>2012-11-25T11:26:01Z</time>
      </trkpt>
      <trkpt lat="45.58382" lon="5.81157">
        <ele>973.69995117188</ele>
        <time>2012-11-25T11:26:12Z</time>
      </trkpt>
      <trkpt lat="45.58402" lon="5.81161">
        <ele>971.40002441406</ele>
        <time>2012-11-25T11:26:27Z</time>
      </trkpt>
      <trkpt lat="45.5842" lon="5.81169">
        <ele>972.40002441406</ele>
        <time>2012-11-25T11:26:43Z</time>
      </trkpt>
      <trkpt lat="45.58439" lon="5.81167">
        <ele>974</ele>
        <time>2012-11-25T11:26:56Z</time>
      </trkpt>
      <trkpt lat="45.58454" lon="5.81148">
        <ele>974.90002441406</ele>
        <time>2012-11-25T11:27:13Z</time>
      </trkpt>
      <trkpt lat="45.58466" lon="5.81127">
        <ele>974</ele>
        <time>2012-11-25T11:27:27Z</time>
      </trkpt>
      <trkpt lat="45.58486" lon="5.81126">
        <ele>972.69995117188</ele>
        <time>2012-11-25T11:27:43Z</time>
      </trkpt>
      <trkpt lat="45.58506" lon="5.81128">
        <ele>970.40002441406</ele>
        <time>2012-11-25T11:27:54Z</time>
      </trkpt>
      <trkpt lat="45.58525" lon="5.8112">
        <ele>971.30004882812</ele>
        <time>2012-11-25T11:28:06Z</time>
      </trkpt>
      <trkpt lat="45.58542" lon="5.81109">
        <ele>972.80004882812</ele>
        <time>2012-11-25T11:28:19Z</time>
      </trkpt>
      <trkpt lat="45.5856" lon="5.811">
        <ele>973.90002441406</ele>
        <time>2012-11-25T11:28:34Z</time>
      </trkpt>
      <trkpt lat="45.58579" lon="5.81092">
        <ele>973.5</ele>
        <time>2012-11-25T11:28:49Z</time>
      </trkpt>
      <trkpt lat="45.58598" lon="5.81087">
        <ele>976.40002441406</ele>
        <time>2012-11-25T11:29:05Z</time>
      </trkpt>
      <trkpt lat="45.58617" lon="5.81083">
        <ele>978</ele>
        <time>2012-11-25T11:29:18Z</time>
      </trkpt>
      <trkpt lat="45.58635" lon="5.81073">
        <ele>977.90002441406</ele>
        <time>2012-11-25T11:29:37Z</time>
      </trkpt>
      <trkpt lat="45.58651" lon="5.81059">
        <ele>977.19995117188</ele>
        <time>2012-11-25T11:29:53Z</time>
      </trkpt>
      <trkpt lat="45.58673" lon="5.8103">
        <ele>979</ele>
        <time>2012-11-25T11:30:16Z</time>
      </trkpt>
      <trkpt lat="45.58688" lon="5.81011">
        <ele>978</ele>
        <time>2012-11-25T11:30:30Z</time>
      </trkpt>
      <trkpt lat="45.58705" lon="5.80997">
        <ele>972</ele>
        <time>2012-11-25T11:30:44Z</time>
      </trkpt>
      <trkpt lat="45.58729" lon="5.80989">
        <ele>971.59997558594</ele>
        <time>2012-11-25T11:31:49Z</time>
      </trkpt>
    </trkseg>
  </trk>
</gpx>